Time;durP1;ratioP1;P1;durP2;ratioP2;P2;SDS_P1;SDS_P2;PMS_P1;PMS_P2;Temp;Humidity;BMP_temperature;BMP_pressure;BME280_temperature;BME280_humidity;BME280_pressure;Samples;Min_cycle;Max_cycle;Signal;HPM_P1;HPM_P2
2023/08/24 00:01:17;;;;;;;6.35;3.75;;;;;;;23.56;100.00;100187.56;5038863;28;20083;-73
2023/08/24 00:04:03;;;;;;;5.80;3.15;;;;;;;23.54;100.00;100187.16;5026334;28;20107;-73
2023/08/24 00:06:48;;;;;;;5.88;3.53;;;;;;;23.51;100.00;100185.09;5012876;28;20041;-73
2023/08/24 00:09:34;;;;;;;5.70;3.30;;;;;;;23.51;100.00;100185.09;5009640;28;20040;-73
2023/08/24 00:12:20;;;;;;;4.07;3.17;;;;;;;23.48;100.00;100180.22;5031380;28;20034;-73
2023/08/24 00:15:08;;;;;;;4.63;3.00;;;;;;;23.45;100.00;100178.16;5039753;28;20052;-73
2023/08/24 00:17:54;;;;;;;4.60;3.00;;;;;;;23.42;100.00;100172.06;5025794;28;20068;-73
2023/08/24 00:20:40;;;;;;;4.20;3.25;;;;;;;23.39;100.00;100170.00;5025242;28;20518;-73
2023/08/24 00:23:26;;;;;;;5.68;3.30;;;;;;;23.33;100.00;100157.41;5025995;28;20072;-73
2023/08/24 00:26:11;;;;;;;7.15;3.38;;;;;;;23.32;100.00;100161.44;5012094;28;20034;-73
2023/08/24 00:28:57;;;;;;;3.80;3.20;;;;;;;23.29;100.00;100159.41;5024493;28;20036;-73
2023/08/24 00:31:43;;;;;;;4.35;3.17;;;;;;;23.22;100.00;100145.16;5038355;28;20107;-73
2023/08/24 00:34:29;;;;;;;3.55;2.97;;;;;;;23.20;100.00;100133.38;5012134;28;20112;-73
2023/08/24 00:37:15;;;;;;;5.90;3.40;;;;;;;23.17;100.00;100131.34;5037684;28;20493;-73
2023/08/24 00:40:04;;;;;;;4.25;3.72;;;;;;;23.16;100.00;100132.53;5023244;28;20030;-73
2023/08/24 00:42:50;;;;;;;5.30;3.78;;;;;;;23.12;100.00;100132.53;4995744;28;20034;-73
2023/08/24 00:45:36;;;;;;;4.60;3.28;;;;;;;23.11;100.00;100122.38;5037707;28;20108;-73
2023/08/24 00:48:25;;;;;;;6.55;3.50;;;;;;;23.10;100.00;100126.41;5025329;28;20033;-73
2023/08/24 00:51:11;;;;;;;4.68;3.10;;;;;;;23.07;100.00;100126.41;5025784;28;20049;-73
2023/08/24 00:53:57;;;;;;;5.40;3.20;;;;;;;23.02;100.00;100116.22;5038243;28;20029;-73
2023/08/24 00:56:43;;;;;;;4.55;2.92;;;;;;;23.03;100.00;100117.03;5024602;28;20038;-73
2023/08/24 00:59:29;;;;;;;3.30;3.00;;;;;;;23.00;100.00;100112.94;5005579;28;20034;-73
2023/08/24 01:02:15;;;;;;;5.95;3.50;;;;;;;22.97;100.00;100100.38;5014625;28;20037;-73
2023/08/24 01:05:00;;;;;;;5.05;3.58;;;;;;;22.95;100.00;100097.13;5025025;28;20045;-73
2023/08/24 01:07:46;;;;;;;5.85;3.40;;;;;;;22.92;100.00;100094.22;5010375;28;20046;-73
2023/08/24 01:10:56;;;;;;;3.83;3.15;;;;;;;22.91;100.00;100087.75;5014778;28;20034;-73
2023/08/24 01:13:49;;;;;;;5.82;3.33;;;;;;;22.87;100.00;100089.75;5016026;28;20486;-73
2023/08/24 01:16:40;;;;;;;3.85;3.03;;;;;;;22.85;100.00;100086.47;5025352;28;20025;-73
2023/08/24 01:19:46;;;;;;;4.70;3.55;;;;;;;22.84;100.00;100096.16;5012130;28;20037;-73
2023/08/24 01:22:56;;;;;;;4.80;3.22;;;;;;;22.81;100.00;100085.59;5039101;28;20485;-73
2023/08/24 01:26:05;;;;;;;4.85;3.20;;;;;;;22.79;100.00;100073.03;5024765;28;20033;-73
2023/08/24 01:28:51;;;;;;;7.15;3.67;;;;;;;22.75;100.00;100073.00;5027515;28;20397;-73
2023/08/24 01:31:37;;;;;;;3.80;3.20;;;;;;;22.73;100.00;100069.75;5010846;28;20440;-73
2023/08/24 01:34:23;;;;;;;6.55;3.42;;;;;;;22.70;100.00;100064.88;5036497;28;20033;-73
2023/08/24 01:37:09;;;;;;;4.13;3.05;;;;;;;22.69;100.00;100078.22;5037586;28;20037;-73
2023/08/24 01:40:14;;;;;;;4.05;2.88;;;;;;;22.67;100.00;100091.13;5036122;28;20064;-73
2023/08/24 01:43:03;;;;;;;6.70;2.97;;;;;;;22.63;100.00;100070.47;5037076;28;20509;-73
2023/08/24 01:45:49;;;;;;;5.57;3.50;;;;;;;22.58;100.00;100087.78;5024902;28;20449;-73
2023/08/24 01:48:34;;;;;;;4.90;3.30;;;;;;;22.56;100.00;100076.03;5024313;28;20541;-73
2023/08/24 01:51:20;;;;;;;5.80;2.85;;;;;;;22.51;100.00;100071.50;5010686;28;20074;-73
2023/08/24 01:54:06;;;;;;;5.75;3.20;;;;;;;22.51;100.00;100075.19;5010341;28;20108;-73
2023/08/24 01:56:52;;;;;;;5.85;3.50;;;;;;;22.53;100.00;100072.75;5023516;28;20049;-73
2023/08/24 01:59:38;;;;;;;4.07;3.00;;;;;;;22.49;100.00;100063.44;5036598;28;20115;-73
2023/08/24 02:02:25;;;;;;;3.97;2.92;;;;;;;22.48;100.00;100061.81;5037324;28;20414;-73
2023/08/24 02:05:10;;;;;;;3.50;3.05;;;;;;;22.45;100.00;100059.72;5004474;28;20505;-73
2023/08/24 02:07:57;;;;;;;5.32;3.25;;;;;;;22.43;100.00;100059.31;5018827;28;20029;-73
2023/08/24 02:10:42;;;;;;;3.83;2.75;;;;;;;22.41;100.00;100067.38;5024741;28;20409;-73
2023/08/24 02:13:28;;;;;;;4.03;2.90;;;;;;;22.38;100.00;100059.66;5026086;28;20432;-73
2023/08/24 02:16:14;;;;;;;4.15;3.10;;;;;;;22.37;100.00;100057.19;5009469;28;20486;-73
2023/08/24 02:19:00;;;;;;;3.80;3.30;;;;;;;22.35;100.00;100060.44;5008465;28;20045;-73
2023/08/24 02:21:46;;;;;;;4.30;3.30;;;;;;;22.33;100.00;100065.66;5037335;28;20034;-73
2023/08/24 02:24:32;;;;;;;6.03;3.28;;;;;;;22.30;100.00;100061.56;5023331;28;20033;-73
2023/08/24 02:27:18;;;;;;;5.50;3.30;;;;;;;22.28;100.00;100066.78;5023600;28;20025;-73
2023/08/24 02:30:04;;;;;;;4.90;3.25;;;;;;;22.27;100.00;100058.69;5022431;28;20120;-73
2023/08/24 02:32:50;;;;;;;4.90;3.60;;;;;;;22.26;100.00;100055.06;5023077;28;20489;-73
2023/08/24 02:35:36;;;;;;;5.22;3.33;;;;;;;22.24;100.00;100062.31;5036039;28;20090;-73
2023/08/24 02:38:23;;;;;;;3.85;3.17;;;;;;;22.24;100.00;100067.97;5035383;28;20038;-73
2023/08/24 02:41:10;;;;;;;5.18;3.10;;;;;;;22.24;100.00;100065.13;5021477;28;20041;-73
2023/08/24 02:43:56;;;;;;;3.40;3.10;;;;;;;22.23;100.00;100071.97;5022256;28;20029;-73
2023/08/24 02:46:44;;;;;;;4.72;3.05;;;;;;;22.22;100.00;100085.31;5035418;28;20497;-73
2023/08/24 02:49:30;;;;;;;4.75;3.22;;;;;;;22.21;100.00;100083.69;5023560;28;20097;-73
2023/08/24 02:52:15;;;;;;;4.28;3.40;;;;;;;22.22;100.00;100090.16;5022198;28;20093;-73
2023/08/24 02:55:01;;;;;;;3.72;3.05;;;;;;;22.21;100.00;100085.69;5022882;28;20030;-73
2023/08/24 02:57:47;;;;;;;3.30;3.00;;;;;;;22.19;100.00;100085.25;5036009;28;20091;-73
2023/08/24 03:00:33;;;;;;;4.80;3.22;;;;;;;22.20;100.00;100084.06;5023517;28;20041;-73
2023/08/24 03:03:19;;;;;;;5.38;3.53;;;;;;;22.19;100.00;100091.72;5007622;28;20406;-73
2023/08/24 03:06:05;;;;;;;5.40;3.28;;;;;;;22.17;100.00;100091.25;5003852;28;20045;-73
2023/08/24 03:08:51;;;;;;;4.30;3.10;;;;;;;22.17;100.00;100098.94;5022898;28;20045;-73
2023/08/24 03:11:37;;;;;;;8.63;3.95;;;;;;;22.19;100.00;100099.41;5035031;28;20543;-73
2023/08/24 03:14:23;;;;;;;4.93;3.53;;;;;;;22.14;100.00;100103.34;5035067;28;20101;-73
2023/08/24 03:17:09;;;;;;;6.85;4.30;;;;;;;22.07;100.00;100115.38;5022698;28;20596;-73
2023/08/24 03:19:54;;;;;;;8.18;4.45;;;;;;;22.07;100.00;100117.38;5008875;28;20110;-73
2023/08/24 03:22:40;;;;;;;8.05;4.25;;;;;;;22.07;100.00;100137.19;5022509;28;20029;-73
2023/08/24 03:25:26;;;;;;;6.43;4.32;;;;;;;22.01;100.00;100150.84;5008799;28;20088;-73
2023/08/24 03:28:12;;;;;;;7.32;4.65;;;;;;;21.97;100.00;100166.91;5022517;28;20449;-73
2023/08/24 03:30:58;;;;;;;11.27;5.00;;;;;;;21.93;100.00;100185.03;5009222;28;20264;-73
2023/08/24 03:33:45;;;;;;;8.88;4.18;;;;;;;21.94;100.00;100166.88;5013101;28;20049;-73
2023/08/24 03:36:31;;;;;;;6.72;3.80;;;;;;;21.94;100.00;100152.72;5026846;28;20537;-73
2023/08/24 03:39:16;;;;;;;7.50;4.07;;;;;;;21.92;100.00;100150.25;5026364;28;20100;-73
2023/08/24 03:42:02;;;;;;;8.65;3.50;;;;;;;21.92;100.00;100130.47;5026639;28;20511;-73
2023/08/24 03:44:48;;;;;;;6.18;3.60;;;;;;;21.82;100.00;100131.16;5026696;28;20037;-73
2023/08/24 03:47:34;;;;;;;5.28;3.40;;;;;;;21.81;100.00;100130.34;5039362;28;20026;-73
2023/08/24 03:50:21;;;;;;;7.32;3.53;;;;;;;21.80;100.00;100134.34;5026484;28;20030;-72
2023/08/24 03:53:07;;;;;;;7.07;3.20;;;;;;;21.85;100.00;100134.03;5026584;28;20041;-73
2023/08/24 03:55:53;;;;;;;6.28;3.28;;;;;;;21.78;100.00;100127.44;5010064;28;20026;-73
2023/08/24 03:58:39;;;;;;;6.07;3.03;;;;;;;21.77;100.00;100129.44;5037998;28;20033;-73
2023/08/24 04:01:25;;;;;;;9.30;3.90;;;;;;;21.75;100.00;100128.19;5039384;28;20486;-72
2023/08/24 04:04:11;;;;;;;12.15;4.15;;;;;;;21.70;100.00;100126.50;5026736;28;20478;-73
2023/08/24 04:06:56;;;;;;;6.45;3.30;;;;;;;21.62;100.00;100127.59;5019732;28;20029;-73
2023/08/24 04:09:42;;;;;;;7.80;4.90;;;;;;;21.36;100.00;100117.81;5005204;28;20036;-73
2023/08/24 04:12:28;;;;;;;11.43;4.40;;;;;;;21.23;100.00;100107.09;5032487;28;20033;-72
2023/08/24 04:15:14;;;;;;;10.55;4.68;;;;;;;21.15;100.00;100090.03;5012548;28;20033;-73
2023/08/24 04:18:00;;;;;;;9.95;4.50;;;;;;;21.11;100.00;100080.66;5012027;28;20060;-73
2023/08/24 04:20:46;;;;;;;9.07;4.35;;;;;;;21.01;100.00;100078.50;5025962;28;20398;-73
2023/08/24 04:23:32;;;;;;;7.60;3.80;;;;;;;21.04;100.00;100091.84;5025703;28;20037;-73
2023/08/24 04:26:17;;;;;;;6.10;3.53;;;;;;;21.05;100.00;100101.13;5025949;28;20084;-73
2023/08/24 04:29:03;;;;;;;9.68;4.30;;;;;;;21.02;100.00;100122.47;5012150;28;20450;-73
2023/08/24 04:31:49;;;;;;;9.43;4.53;;;;;;;21.03;100.00;100124.06;5014447;28;20030;-73
2023/08/24 04:34:35;;;;;;;9.07;4.40;;;;;;;20.93;100.00;100133.19;5008894;28;20026;-72
2023/08/24 04:37:20;;;;;;;8.80;4.45;;;;;;;20.88;100.00;100139.94;5023488;28;20029;-73
2023/08/24 04:40:11;;;;;;;7.47;4.20;;;;;;;20.91;100.00;100144.81;5038306;28;20041;-73
2023/08/24 04:42:56;;;;;;;6.68;3.75;;;;;;;20.92;100.00;100138.00;5010548;28;20041;-72
2023/08/24 04:45:42;;;;;;;6.55;4.05;;;;;;;20.94;100.00;100121.50;5011474;28;20048;-73
2023/08/24 04:48:32;;;;;;;6.07;3.38;;;;;;;20.95;100.00;100111.84;5007720;28;20030;-72
2023/08/24 04:51:18;;;;;;;7.82;4.43;;;;;;;20.92;100.00;100089.19;5026139;28;20037;-73
2023/08/24 04:54:04;;;;;;;10.20;4.38;;;;;;;20.95;100.00;100083.63;5024301;28;20035;-72
2023/08/24 04:56:49;;;;;;;6.82;3.50;;;;;;;20.94;100.00;100078.34;5037221;28;20029;-72
2023/08/24 04:59:35;;;;;;;8.27;3.88;;;;;;;20.95;100.00;100077.19;5025153;28;20088;-73
2023/08/24 05:02:21;;;;;;;8.35;4.40;;;;;;;20.91;100.00;100056.53;5038425;28;20034;-73
2023/08/24 05:05:09;;;;;;;9.63;3.40;;;;;;;20.91;100.00;100037.56;5010918;28;20064;-72
2023/08/24 05:07:55;;;;;;;9.35;3.47;;;;;;;20.93;100.00;100043.66;5024474;28;20037;-72
2023/08/24 05:10:41;;;;;;;8.88;3.92;;;;;;;20.91;100.00;100045.22;5010708;28;20056;-73
2023/08/24 05:13:27;;;;;;;5.78;3.90;;;;;;;20.96;100.00;100040.09;5038906;28;20096;-73
2023/08/24 05:16:13;;;;;;;8.35;4.18;;;;;;;20.94;100.00;100041.66;5024833;28;20037;-73
2023/08/24 05:18:59;;;;;;;5.45;3.47;;;;;;;20.95;100.00;100027.19;5037576;28;20041;-72
2023/08/24 05:21:44;;;;;;;7.70;4.18;;;;;;;20.93;100.00;100011.81;5036802;28;20064;-73
2023/08/24 05:24:30;;;;;;;6.78;3.40;;;;;;;20.94;100.00;100013.44;5037035;28;20033;-73
2023/08/24 05:27:16;;;;;;;7.65;3.63;;;;;;;20.88;100.00;100015.75;5006381;28;20026;-73
2023/08/24 05:30:02;;;;;;;8.48;4.22;;;;;;;20.86;100.00;100000.38;5024603;28;20041;-73
2023/08/24 05:32:48;;;;;;;5.88;3.78;;;;;;;20.87;100.00;99996.38;5023200;28;20044;-72
2023/08/24 05:35:33;;;;;;;5.97;3.42;;;;;;;20.87;100.00;100002.84;5024599;28;20033;-73
2023/08/24 05:38:19;;;;;;;12.38;4.30;;;;;;;20.89;100.00;100005.28;5024220;28;20409;-72
2023/08/24 05:41:05;;;;;;;6.95;3.38;;;;;;;20.91;100.00;100000.88;5024261;28;20033;-73
2023/08/24 05:43:52;;;;;;;6.68;3.67;;;;;;;20.92;100.00;100004.50;5009314;28;20029;-73
2023/08/24 05:46:38;;;;;;;8.55;3.67;;;;;;;20.92;100.00;100011.00;5037972;28;20095;-72
2023/08/24 05:49:24;;;;;;;9.00;4.30;;;;;;;20.92;100.00;100008.19;5024281;28;20029;-73
2023/08/24 05:52:10;;;;;;;6.18;3.75;;;;;;;20.96;100.00;100011.84;5038096;28;20504;-73
2023/08/24 05:54:56;;;;;;;5.45;3.20;;;;;;;21.00;100.00;100023.22;5023431;28;20040;-73
2023/08/24 05:57:41;;;;;;;5.28;3.35;;;;;;;21.04;100.00;100029.75;5017495;28;20034;-73
2023/08/24 06:00:27;;;;;;;6.40;2.78;;;;;;;21.09;100.00;100039.88;5012225;28;20045;-73
2023/08/24 06:03:13;;;;;;;6.68;3.22;;;;;;;21.12;100.00;100037.16;5024058;28;20045;-73
2023/08/24 06:06:03;;;;;;;7.47;3.17;;;;;;;21.17;100.00;100050.13;5024228;28;20029;-72
2023/08/24 06:08:49;;;;;;;7.15;3.53;;;;;;;21.22;100.00;100060.28;5009677;28;20041;-73
2023/08/24 06:11:35;;;;;;;5.68;3.20;;;;;;;21.28;100.00;100055.94;5009649;28;20445;-72
2023/08/24 06:14:21;;;;;;;4.97;3.03;;;;;;;21.33;100.00;100056.44;5023282;28;20068;-73
2023/08/24 06:17:07;;;;;;;5.65;3.20;;;;;;;21.41;100.00;100077.19;5035540;28;20083;-73
2023/08/24 06:19:53;;;;;;;5.53;3.13;;;;;;;21.47;100.00;100089.78;5036391;28;20040;-72
2023/08/24 06:22:38;;;;;;;4.88;2.80;;;;;;;21.50;100.00;100077.72;5023830;28;20052;-72
2023/08/24 06:25:24;;;;;;;3.85;3.20;;;;;;;21.56;100.00;100069.75;5035849;28;20036;-73
2023/08/24 06:28:11;;;;;;;4.65;2.78;;;;;;;21.63;100.00;100084.00;5010056;28;20055;-73
2023/08/24 06:30:57;;;;;;;5.30;3.08;;;;;;;21.67;100.00;100092.53;5009959;28;20124;-73
2023/08/24 06:33:42;;;;;;;9.98;3.65;;;;;;;21.72;100.00;100095.03;5023675;28;20439;-73
2023/08/24 06:36:29;;;;;;;4.72;3.28;;;;;;;21.76;100.00;100098.75;5009842;28;20052;-72
2023/08/24 06:39:15;;;;;;;6.10;3.00;;;;;;;21.82;100.00;100119.84;5036788;28;20071;-73
2023/08/24 06:42:02;;;;;;;3.53;2.70;;;;;;;21.88;100.00;100140.13;5035919;28;20041;-73
2023/08/24 06:44:51;;;;;;;4.80;2.97;;;;;;;21.92;100.00;100140.97;5015948;28;20037;-73
2023/08/24 06:47:37;;;;;;;4.40;3.10;;;;;;;21.96;100.00;100131.38;5004011;28;20474;-73
2023/08/24 06:50:23;;;;;;;7.38;3.22;;;;;;;22.00;100.00;100109.59;5021398;28;20029;-73
2023/08/24 06:53:08;;;;;;;3.60;2.72;;;;;;;22.04;100.00;100118.97;5035271;28;20036;-73
2023/08/24 06:55:57;;;;;;;3.40;2.80;;;;;;;22.09;100.00;100124.28;5023236;28;20037;-73
2023/08/24 06:58:45;;;;;;;4.28;2.85;;;;;;;22.14;100.00;100142.94;5003739;28;20038;-73
2023/08/24 07:01:31;;;;;;;5.18;2.80;;;;;;;22.17;100.00;100141.34;5009263;28;20489;-73
2023/08/24 07:04:17;;;;;;;5.00;2.67;;;;;;;22.21;100.00;100142.25;5036825;28;20101;-73
2023/08/24 07:07:03;;;;;;;3.63;2.30;;;;;;;22.25;100.00;100155.25;5024867;28;20045;-73
2023/08/24 07:09:49;;;;;;;5.75;2.80;;;;;;;22.30;100.00;100182.41;5035141;28;20064;-73
2023/08/24 07:12:35;;;;;;;6.65;3.15;;;;;;;22.35;100.00;100190.56;5035136;28;20029;-73
2023/08/24 07:15:20;;;;;;;6.05;2.97;;;;;;;22.38;100.00;100178.47;5027112;28;20120;-73
2023/08/24 07:18:07;;;;;;;8.52;3.10;;;;;;;22.39;100.00;100205.56;5026832;28;20084;-73
2023/08/24 07:20:54;;;;;;;5.32;2.90;;;;;;;22.40;100.00;100218.53;5039682;28;20038;-73
2023/08/24 07:23:40;;;;;;;5.43;3.38;;;;;;;22.43;100.00;100223.41;5013170;28;20037;-73
2023/08/24 07:26:25;;;;;;;8.00;3.80;;;;;;;22.39;100.00;100199.91;5012937;28;20044;-73
2023/08/24 07:29:11;;;;;;;7.88;3.30;;;;;;;22.36;100.00;100178.03;5026871;28;20044;-73
2023/08/24 07:31:57;;;;;;;4.40;3.17;;;;;;;22.40;100.00;100173.25;5039503;28;20029;-73
2023/08/24 07:34:43;;;;;;;7.07;3.15;;;;;;;22.44;100.00;100181.78;5038410;28;20549;-73
2023/08/24 07:37:28;;;;;;;5.47;3.13;;;;;;;22.43;100.00;100186.63;5021640;28;20128;-73
2023/08/24 07:40:14;;;;;;;7.70;3.40;;;;;;;;;;5040736;28;20048;-73
2023/08/24 07:43:00;;;;;;;7.57;3.85;;;;;;;22.39;100.00;100100.88;5031183;28;20056;-73
2023/08/24 07:45:46;;;;;;;5.40;2.85;;;;;;;22.39;100.00;100083.91;5012542;28;20041;-73
2023/08/24 07:48:32;;;;;;;5.95;2.88;;;;;;;22.40;100.00;100077.06;5012883;28;20022;-73
2023/08/24 07:51:17;;;;;;;6.15;2.90;;;;;;;22.41;100.00;100052.41;5012980;28;20034;-73
2023/08/24 07:54:04;;;;;;;6.72;3.40;;;;;;;22.30;100.00;100043.78;5022518;28;20441;-73
2023/08/24 07:56:50;;;;;;;5.93;3.30;;;;;;;22.28;100.00;100027.19;5038921;28;20034;-73
2023/08/24 07:59:36;;;;;;;6.63;3.08;;;;;;;22.29;100.00;100009.03;5026376;28;20033;-73
2023/08/24 08:02:21;;;;;;;6.38;3.17;;;;;;;22.32;100.00;99995.34;5040198;28;20083;-73
2023/08/24 08:05:07;;;;;;;4.88;2.75;;;;;;;22.32;100.00;99984.81;5039014;28;20034;-72
2023/08/24 08:07:53;;;;;;;4.78;2.83;;;;;;;22.32;100.00;99976.34;5026475;28;20056;-73
2023/08/24 08:10:39;;;;;;;4.80;2.80;;;;;;;22.31;100.00;99966.19;5019488;28;20072;-73
2023/08/24 08:13:25;;;;;;;3.95;2.95;;;;;;;22.32;100.00;99970.69;5026827;28;20087;-73
2023/08/24 08:16:11;;;;;;;8.90;3.10;;;;;;;22.33;100.00;99994.94;5026056;28;20037;-73
2023/08/24 08:18:57;;;;;;;5.63;2.92;;;;;;;22.33;100.00;100006.25;5039848;28;20107;-73
2023/08/24 08:21:42;;;;;;;3.63;2.50;;;;;;;22.35;100.00;100042.66;5039914;28;20034;-73
2023/08/24 08:24:28;;;;;;;3.95;2.90;;;;;;;22.34;100.00;100044.63;5038280;28;20045;-73
2023/08/24 08:27:14;;;;;;;4.60;3.00;;;;;;;22.36;100.00;100081.84;5038649;28;20092;-73
2023/08/24 08:30:00;;;;;;;5.95;3.08;;;;;;;22.37;100.00;100100.47;5018049;28;20030;-73
2023/08/24 08:32:46;;;;;;;4.95;2.97;;;;;;;22.38;100.00;100107.75;5024995;28;20116;-73
2023/08/24 08:35:31;;;;;;;6.88;2.78;;;;;;;22.39;100.00;100156.66;5016495;28;20387;-73
2023/08/24 08:38:17;;;;;;;6.63;3.45;;;;;;;22.40;100.00;100161.94;5018124;28;20041;-73
2023/08/24 08:41:04;;;;;;;4.50;3.03;;;;;;;22.43;100.00;100166.03;5012983;28;20045;-73
2023/08/24 08:43:49;;;;;;;6.40;2.88;;;;;;;22.44;100.00;100161.97;5025779;28;20041;-73
2023/08/24 08:46:35;;;;;;;4.68;3.35;;;;;;;22.47;100.00;100158.38;5011279;28;20504;-73
2023/08/24 08:49:21;;;;;;;3.65;2.95;;;;;;;22.50;100.00;100152.75;5025146;28;20029;-73
2023/08/24 08:52:07;;;;;;;5.18;3.10;;;;;;;22.53;100.00;100142.69;5025500;28;20033;-73
2023/08/24 08:54:52;;;;;;;5.70;3.20;;;;;;;22.56;100.00;100110.78;5024998;28;20026;-73
2023/08/24 08:57:39;;;;;;;4.85;3.25;;;;;;;22.58;100.00;100082.13;5037413;28;20063;-73
2023/08/24 09:00:25;;;;;;;6.78;3.53;;;;;;;22.59;100.00;100073.22;5025387;28;20033;-73
2023/08/24 09:03:11;;;;;;;8.68;4.20;;;;;;;22.60;100.00;100055.06;5011156;28;20114;-72
2023/08/24 09:05:57;;;;;;;13.13;4.43;;;;;;;22.63;100.00;100064.78;5011000;28;20532;-73
2023/08/24 09:08:43;;;;;;;10.32;4.05;;;;;;;22.68;100.00;100072.94;5024945;28;20041;-73
2023/08/24 09:11:28;;;;;;;5.38;3.40;;;;;;;22.76;100.00;100057.66;5023737;28;20133;-73
2023/08/24 09:14:14;;;;;;;8.65;3.38;;;;;;;22.83;100.00;100049.25;5024881;28;20401;-73
2023/08/24 09:17:00;;;;;;;5.43;3.60;;;;;;;22.90;100.00;100048.50;5024730;28;20049;-73
2023/08/24 09:19:46;;;;;;;8.52;4.32;;;;;;;22.97;100.00;100066.41;5010966;28;20113;-73
2023/08/24 09:22:35;;;;;;;9.00;4.55;;;;;;;23.06;100.00;100083.06;5010485;28;20029;-73
2023/08/24 09:25:21;;;;;;;9.80;5.75;;;;;;;23.14;100.00;100086.78;5013850;28;20034;-73
2023/08/24 09:28:08;;;;;;;11.50;5.55;;;;;;;23.22;100.00;100108.31;5037357;28;20038;-73
2023/08/24 09:30:56;;;;;;;12.55;5.65;;;;;;;23.29;100.00;100108.41;5021477;28;20037;-73
2023/08/24 09:33:45;;;;;;;11.57;5.70;;;;;;;23.34;100.00;100113.69;5005851;28;20092;-73
2023/08/24 09:36:34;;;;;;;8.63;5.00;;;;;;;23.40;100.00;100111.31;5024858;28;20071;-73
2023/08/24 09:39:20;;;;;;;7.80;4.70;;;;;;;23.44;100.00;100114.19;5004452;28;20042;-73
2023/08/24 09:42:05;;;;;;;10.98;5.15;;;;;;;23.47;100.00;100121.91;5018887;28;20092;-73
2023/08/24 09:44:51;;;;;;;9.73;4.72;;;;;;;23.48;100.00;100115.84;5005131;28;20038;-73
2023/08/24 09:47:37;;;;;;;9.88;4.75;;;;;;;23.50;100.00;100118.28;5006616;28;20030;-73
2023/08/24 09:50:23;;;;;;;8.23;4.78;;;;;;;23.49;100.00;100113.84;5021253;28;20030;-73
2023/08/24 09:53:09;;;;;;;14.15;5.38;;;;;;;23.47;100.00;100100.06;5023865;28;20052;-73
2023/08/24 09:55:59;;;;;;;10.50;4.82;;;;;;;23.44;100.00;100068.84;5014262;28;20120;-73
2023/08/24 09:58:45;;;;;;;9.30;4.70;;;;;;;23.43;100.00;100008.53;5023034;28;20029;-73
2023/08/24 10:01:30;;;;;;;11.57;6.38;;;;;;;23.33;100.00;99953.41;5024079;28;20083;-73
2023/08/24 10:04:24;;;;;;;11.05;6.65;;;;;;;23.21;100.00;99922.59;5037811;28;20033;-73
2023/08/24 10:07:15;;;;;;;8.93;5.75;;;;;;;23.13;100.00;99892.59;5010494;28;20102;-73
2023/08/24 10:10:08;;;;;;;10.38;5.03;;;;;;;23.07;100.00;99860.19;5017589;28;20068;-73
2023/08/24 10:12:59;;;;;;;12.00;6.22;;;;;;;23.01;100.00;99850.41;5033382;28;20037;-73
2023/08/24 10:15:46;;;;;;;9.02;5.63;;;;;;;22.94;100.00;99856.81;5023959;28;20037;-73
2023/08/24 10:18:31;;;;;;;12.93;7.72;;;;;;;22.84;100.00;99869.69;5023174;28;20041;-73
2023/08/24 10:21:17;;;;;;;11.70;6.47;;;;;;;22.79;100.00;99952.16;5023673;28;20033;-73
2023/08/24 10:24:03;;;;;;;9.23;5.60;;;;;;;22.76;100.00;100006.69;5023490;28;20117;-73
2023/08/24 10:26:49;;;;;;;10.40;5.45;;;;;;;22.74;100.00;100011.94;5023243;28;20108;-73
2023/08/24 10:29:35;;;;;;;9.77;5.47;;;;;;;22.72;100.00;99989.69;5010043;28;20026;-73
2023/08/24 10:32:21;;;;;;;9.00;5.60;;;;;;;22.72;100.00;99954.91;5010133;28;20034;-73
2023/08/24 10:35:07;;;;;;;10.00;5.95;;;;;;;22.72;100.00;99926.59;5019730;28;20041;-73
2023/08/24 10:37:53;;;;;;;11.02;6.07;;;;;;;22.71;100.00;99874.03;5023315;28;20037;-73
2023/08/24 10:40:43;;;;;;;9.48;6.00;;;;;;;22.70;100.00;99883.72;5008212;28;20033;-73
2023/08/24 10:43:29;;;;;;;10.82;6.22;;;;;;;22.74;100.00;99881.75;5023972;28;20034;-73
2023/08/24 10:46:18;;;;;;;9.45;5.60;;;;;;;22.74;100.00;99856.28;5023152;28;20033;-73
2023/08/24 10:49:04;;;;;;;8.45;5.22;;;;;;;22.77;100.00;99863.16;5035401;28;20140;-73
2023/08/24 10:51:50;;;;;;;10.50;5.88;;;;;;;22.81;100.00;99855.50;5023422;28;20037;-73
2023/08/24 10:54:35;;;;;;;11.60;6.38;;;;;;;22.81;100.00;99819.50;5023079;28;20034;-73
2023/08/24 10:57:27;;;;;;;10.10;5.93;;;;;;;22.85;100.00;99817.53;4993450;28;20130;-73
2023/08/24 11:00:13;;;;;;;10.35;5.68;;;;;;;22.89;100.00;99852.31;5022251;28;20082;-73
2023/08/24 11:02:59;;;;;;;9.32;5.22;;;;;;;22.93;100.00;99852.38;5023745;28;20509;-73
2023/08/24 11:05:45;;;;;;;7.18;5.18;;;;;;;23.02;100.00;99855.69;5003624;28;20034;-73
2023/08/24 11:08:47;;;;;;;7.78;5.15;;;;;;;23.11;100.00;99869.50;5008703;28;20064;-73
2023/08/24 11:11:32;;;;;;;8.73;4.90;;;;;;;23.20;100.00;99867.13;5009448;28;20034;-73
2023/08/24 11:14:21;;;;;;;7.95;5.32;;;;;;;23.34;100.00;99866.41;5023067;28;20042;-73
2023/08/24 11:17:18;;;;;;;9.80;5.32;;;;;;;23.48;100.00;99842.97;5023447;28;20046;-73
2023/08/24 11:20:04;;;;;;;7.97;5.15;;;;;;;23.63;100.00;99831.31;5023230;28;20041;-73
2023/08/24 11:22:50;;;;;;;7.65;4.70;;;;;;;23.79;100.00;99822.50;5036496;28;20034;-73
2023/08/24 11:25:36;;;;;;;8.77;4.80;;;;;;;23.97;100.00;99816.06;5008937;28;20064;-73
2023/08/24 11:28:22;;;;;;;7.72;4.13;;;;;;;24.20;100.00;99836.34;5035751;28;20041;-73
2023/08/24 11:31:09;;;;;;;7.30;4.20;;;;;;;24.44;100.00;99831.13;5035511;28;20076;-73
2023/08/24 11:33:57;;;;;;;6.10;3.45;;;;;;;24.68;100.00;99827.50;5009222;28;20112;-73
2023/08/24 11:36:45;;;;;;;10.05;4.10;;;;;;;24.92;100.00;99816.50;5023355;28;20398;-73
2023/08/24 11:39:32;;;;;;;7.18;3.88;;;;;;;25.18;100.00;99815.22;5022796;28;20436;-73
2023/08/24 11:42:18;;;;;;;5.45;3.33;;;;;;;25.46;100.00;99837.06;5034858;28;20120;-73
2023/08/24 11:45:04;;;;;;;5.30;3.38;;;;;;;25.71;100.00;99851.16;5035673;28;20071;-73
2023/08/24 11:47:50;;;;;;;5.60;3.45;;;;;;;25.94;100.00;99873.47;5022831;28;20025;-73
2023/08/24 11:50:37;;;;;;;5.63;3.50;;;;;;;26.20;100.00;99868.44;5022807;28;20033;-73
2023/08/24 11:53:24;;;;;;;5.22;3.13;;;;;;;26.42;100.00;99855.66;5024367;28;20482;-73
2023/08/24 11:56:11;;;;;;;7.28;3.72;;;;;;;26.64;100.00;99844.94;5039170;28;20037;-73
2023/08/24 11:58:56;;;;;;;7.13;3.05;;;;;;;26.88;100.00;99825.97;5019999;28;20567;-73
2023/08/24 12:01:42;;;;;;;5.03;3.05;;;;;;;27.10;100.00;99834.31;5036820;28;20417;-73
2023/08/24 12:04:28;;;;;;;6.13;3.45;;;;;;;27.34;100.00;99826.78;5006694;28;20046;-73
2023/08/24 12:07:14;;;;;;;8.10;2.97;;;;;;;27.58;100.00;99836.22;5028852;28;20060;-73
2023/08/24 12:10:01;;;;;;;4.15;2.83;;;;;;;27.84;100.00;99846.94;5031731;28;20037;-73
2023/08/24 12:12:47;;;;;;;5.50;3.20;;;;;;;28.04;100.00;99851.97;5020758;28;20098;-73
2023/08/24 12:15:36;;;;;;;4.68;3.00;;;;;;;28.22;100.00;99840.28;5025086;28;20034;-73
2023/08/24 12:18:22;;;;;;;5.60;2.90;;;;;;;28.42;100.00;99855.50;5025879;28;20041;-73
2023/08/24 12:21:08;;;;;;;5.65;3.00;;;;;;;28.60;100.00;99855.19;5012563;28;20084;-74
2023/08/24 12:24:09;;;;;;;6.20;2.90;;;;;;;28.81;100.00;99856.09;5025751;28;20128;-74
2023/08/24 12:27:03;;;;;;;5.13;2.90;;;;;;;29.02;100.00;99864.28;5013583;28;20037;-73
2023/08/24 12:29:49;;;;;;;7.28;2.70;;;;;;;29.23;100.00;99868.03;5013875;28;20036;-73
2023/08/24 12:32:44;;;;;;;8.00;2.75;;;;;;;29.46;100.00;99870.81;5025744;28;20033;-73
2023/08/24 12:35:31;;;;;;;4.57;2.78;;;;;;;29.67;100.00;99883.09;5023036;28;20128;-73
2023/08/24 12:38:17;;;;;;;4.72;2.53;;;;;;;29.88;100.00;99873.28;5018468;28;20132;-74
2023/08/24 12:41:02;;;;;;;4.80;2.33;;;;;;;30.07;100.00;99878.16;5038234;28;20044;-73
2023/08/24 12:43:48;;;;;;;5.00;2.50;;;;;;;30.26;100.00;99888.78;5038278;28;20095;-74
2023/08/24 12:46:35;;;;;;;4.93;2.72;;;;;;;30.40;100.00;99884.78;5025227;28;20034;-73
2023/08/24 12:49:20;;;;;;;4.45;2.58;;;;;;;30.53;100.00;99879.16;5011435;28;20404;-73